sensor_id;sensor_type;location;lat;lon;timestamp;P1;durP1;ratioP1;P2;durP2;ratioP2
57433;SDS011;43277;52.672;6.984;2023-07-13T00:02:22;10.38;;;2.65;;
57433;SDS011;43277;52.672;6.984;2023-07-13T00:04:49;11.18;;;2.42;;
57433;SDS011;43277;52.672;6.984;2023-07-13T00:07:15;10.38;;;2.33;;
57433;SDS011;43277;52.672;6.984;2023-07-13T00:09:45;14.88;;;2.70;;
57433;SDS011;43277;52.672;6.984;2023-07-13T00:15:10;10.13;;;2.75;;
57433;SDS011;43277;52.672;6.984;2023-07-13T00:17:47;13.80;;;2.97;;
57433;SDS011;43277;52.672;6.984;2023-07-13T00:20:22;14.25;;;2.30;;
57433;SDS011;43277;52.672;6.984;2023-07-13T00:22:50;11.52;;;2.70;;
57433;SDS011;43277;52.672;6.984;2023-07-13T00:25:18;13.73;;;2.55;;
57433;SDS011;43277;52.672;6.984;2023-07-13T00:27:49;11.98;;;2.60;;
57433;SDS011;43277;52.672;6.984;2023-07-13T00:30:16;14.68;;;3.13;;
57433;SDS011;43277;52.672;6.984;2023-07-13T00:32:41;10.25;;;2.78;;
57433;SDS011;43277;52.672;6.984;2023-07-13T00:35:07;10.50;;;2.75;;
57433;SDS011;43277;52.672;6.984;2023-07-13T00:37:33;12.25;;;2.88;;
57433;SDS011;43277;52.672;6.984;2023-07-13T00:40:00;12.90;;;3.40;;
57433;SDS011;43277;52.672;6.984;2023-07-13T00:42:28;11.43;;;2.50;;
57433;SDS011;43277;52.672;6.984;2023-07-13T00:47:46;9.55;;;2.70;;
57433;SDS011;43277;52.672;6.984;2023-07-13T00:50:12;9.70;;;2.33;;
57433;SDS011;43277;52.672;6.984;2023-07-13T00:52:41;10.63;;;2.65;;
57433;SDS011;43277;52.672;6.984;2023-07-13T00:55:10;10.75;;;2.78;;
57433;SDS011;43277;52.672;6.984;2023-07-13T00:57:38;9.63;;;2.80;;
57433;SDS011;43277;52.672;6.984;2023-07-13T01:00:04;17.88;;;3.10;;
57433;SDS011;43277;52.672;6.984;2023-07-13T01:02:38;10.32;;;2.40;;
57433;SDS011;43277;52.672;6.984;2023-07-13T01:05:14;10.80;;;2.25;;
57433;SDS011;43277;52.672;6.984;2023-07-13T01:07:41;13.52;;;2.70;;
57433;SDS011;43277;52.672;6.984;2023-07-13T01:10:09;11.15;;;2.95;;
57433;SDS011;43277;52.672;6.984;2023-07-13T01:12:36;11.13;;;2.83;;
57433;SDS011;43277;52.672;6.984;2023-07-13T01:15:02;10.10;;;2.38;;
57433;SDS011;43277;52.672;6.984;2023-07-13T01:17:29;12.13;;;3.05;;
57433;SDS011;43277;52.672;6.984;2023-07-13T01:19:56;11.45;;;2.55;;
57433;SDS011;43277;52.672;6.984;2023-07-13T01:22:21;12.23;;;2.65;;
57433;SDS011;43277;52.672;6.984;2023-07-13T01:24:52;12.77;;;2.55;;
57433;SDS011;43277;52.672;6.984;2023-07-13T01:27:23;12.13;;;2.65;;
57433;SDS011;43277;52.672;6.984;2023-07-13T01:29:50;13.35;;;3.00;;
57433;SDS011;43277;52.672;6.984;2023-07-13T01:32:18;13.65;;;3.20;;
57433;SDS011;43277;52.672;6.984;2023-07-13T01:34:49;11.88;;;2.65;;
57433;SDS011;43277;52.672;6.984;2023-07-13T01:37:16;11.48;;;2.80;;
57433;SDS011;43277;52.672;6.984;2023-07-13T01:39:42;13.90;;;2.63;;
57433;SDS011;43277;52.672;6.984;2023-07-13T01:42:07;14.43;;;3.13;;
57433;SDS011;43277;52.672;6.984;2023-07-13T01:44:33;12.02;;;2.80;;
57433;SDS011;43277;52.672;6.984;2023-07-13T01:47:00;12.93;;;3.47;;
57433;SDS011;43277;52.672;6.984;2023-07-13T01:49:26;12.00;;;2.60;;
57433;SDS011;43277;52.672;6.984;2023-07-13T01:51:52;13.52;;;3.22;;
57433;SDS011;43277;52.672;6.984;2023-07-13T01:54:18;10.07;;;2.85;;
57433;SDS011;43277;52.672;6.984;2023-07-13T01:56:43;13.57;;;3.05;;
57433;SDS011;43277;52.672;6.984;2023-07-13T01:59:09;14.55;;;2.70;;
57433;SDS011;43277;52.672;6.984;2023-07-13T02:01:35;12.10;;;2.83;;
57433;SDS011;43277;52.672;6.984;2023-07-13T02:04:00;13.43;;;3.13;;
57433;SDS011;43277;52.672;6.984;2023-07-13T02:06:26;12.80;;;3.05;;
57433;SDS011;43277;52.672;6.984;2023-07-13T02:08:52;12.90;;;3.30;;
57433;SDS011;43277;52.672;6.984;2023-07-13T02:11:21;11.85;;;2.95;;
57433;SDS011;43277;52.672;6.984;2023-07-13T02:13:47;12.90;;;2.88;;
57433;SDS011;43277;52.672;6.984;2023-07-13T02:16:12;11.98;;;2.55;;
57433;SDS011;43277;52.672;6.984;2023-07-13T02:18:38;12.95;;;2.97;;
57433;SDS011;43277;52.672;6.984;2023-07-13T02:21:04;12.73;;;3.17;;
57433;SDS011;43277;52.672;6.984;2023-07-13T02:23:29;13.40;;;3.13;;
57433;SDS011;43277;52.672;6.984;2023-07-13T02:25:56;10.50;;;2.75;;
57433;SDS011;43277;52.672;6.984;2023-07-13T02:28:22;14.13;;;3.60;;
57433;SDS011;43277;52.672;6.984;2023-07-13T02:30:48;13.38;;;3.53;;
57433;SDS011;43277;52.672;6.984;2023-07-13T02:33:14;10.10;;;2.90;;
57433;SDS011;43277;52.672;6.984;2023-07-13T02:35:40;12.70;;;3.13;;
57433;SDS011;43277;52.672;6.984;2023-07-13T02:38:06;11.55;;;2.90;;
57433;SDS011;43277;52.672;6.984;2023-07-13T02:40:32;14.82;;;3.50;;
57433;SDS011;43277;52.672;6.984;2023-07-13T02:43:01;13.05;;;3.60;;
57433;SDS011;43277;52.672;6.984;2023-07-13T02:45:27;11.80;;;3.20;;
57433;SDS011;43277;52.672;6.984;2023-07-13T02:47:53;13.40;;;3.33;;
57433;SDS011;43277;52.672;6.984;2023-07-13T02:50:19;13.02;;;3.70;;
57433;SDS011;43277;52.672;6.984;2023-07-13T02:52:45;13.43;;;3.70;;
57433;SDS011;43277;52.672;6.984;2023-07-13T02:55:10;11.10;;;3.15;;
57433;SDS011;43277;52.672;6.984;2023-07-13T02:57:36;13.50;;;3.60;;
57433;SDS011;43277;52.672;6.984;2023-07-13T03:00:03;13.07;;;3.05;;
57433;SDS011;43277;52.672;6.984;2023-07-13T03:02:30;12.13;;;3.40;;
57433;SDS011;43277;52.672;6.984;2023-07-13T03:04:57;12.55;;;3.17;;
57433;SDS011;43277;52.672;6.984;2023-07-13T03:07:23;14.18;;;3.22;;
57433;SDS011;43277;52.672;6.984;2023-07-13T03:09:53;11.57;;;3.33;;
57433;SDS011;43277;52.672;6.984;2023-07-13T03:12:22;14.65;;;3.50;;
57433;SDS011;43277;52.672;6.984;2023-07-13T03:14:49;11.93;;;3.10;;
57433;SDS011;43277;52.672;6.984;2023-07-13T03:17:14;12.43;;;3.30;;
57433;SDS011;43277;52.672;6.984;2023-07-13T03:19:40;12.75;;;3.30;;
57433;SDS011;43277;52.672;6.984;2023-07-13T03:22:06;17.85;;;3.28;;
57433;SDS011;43277;52.672;6.984;2023-07-13T03:24:32;12.73;;;3.83;;
57433;SDS011;43277;52.672;6.984;2023-07-13T03:27:00;13.85;;;3.65;;
57433;SDS011;43277;52.672;6.984;2023-07-13T03:29:27;12.80;;;3.30;;
57433;SDS011;43277;52.672;6.984;2023-07-13T03:31:52;12.95;;;3.00;;
57433;SDS011;43277;52.672;6.984;2023-07-13T03:34:18;12.50;;;3.28;;
57433;SDS011;43277;52.672;6.984;2023-07-13T03:36:44;14.35;;;3.45;;
57433;SDS011;43277;52.672;6.984;2023-07-13T03:39:10;13.18;;;3.30;;
57433;SDS011;43277;52.672;6.984;2023-07-13T03:41:36;14.20;;;3.42;;
57433;SDS011;43277;52.672;6.984;2023-07-13T03:44:02;11.15;;;3.35;;
57433;SDS011;43277;52.672;6.984;2023-07-13T03:46:28;14.20;;;3.47;;
57433;SDS011;43277;52.672;6.984;2023-07-13T03:48:54;12.05;;;3.28;;
57433;SDS011;43277;52.672;6.984;2023-07-13T03:51:19;13.43;;;3.50;;
57433;SDS011;43277;52.672;6.984;2023-07-13T03:53:46;15.20;;;3.53;;
57433;SDS011;43277;52.672;6.984;2023-07-13T03:56:13;11.25;;;3.22;;
57433;SDS011;43277;52.672;6.984;2023-07-13T03:58:41;12.25;;;4.20;;
57433;SDS011;43277;52.672;6.984;2023-07-13T04:01:08;15.48;;;3.67;;
57433;SDS011;43277;52.672;6.984;2023-07-13T04:03:35;13.95;;;3.33;;
57433;SDS011;43277;52.672;6.984;2023-07-13T04:06:03;12.25;;;3.22;;
57433;SDS011;43277;52.672;6.984;2023-07-13T04:08:31;13.48;;;3.30;;
57433;SDS011;43277;52.672;6.984;2023-07-13T04:10:58;10.52;;;3.08;;
57433;SDS011;43277;52.672;6.984;2023-07-13T04:13:25;11.40;;;3.30;;
57433;SDS011;43277;52.672;6.984;2023-07-13T04:15:51;15.20;;;3.47;;
57433;SDS011;43277;52.672;6.984;2023-07-13T04:18:18;11.90;;;2.90;;
57433;SDS011;43277;52.672;6.984;2023-07-13T04:20:45;11.18;;;2.92;;
57433;SDS011;43277;52.672;6.984;2023-07-13T04:23:14;12.98;;;3.13;;
57433;SDS011;43277;52.672;6.984;2023-07-13T04:25:47;13.93;;;3.17;;
57433;SDS011;43277;52.672;6.984;2023-07-13T04:28:17;9.85;;;3.00;;
57433;SDS011;43277;52.672;6.984;2023-07-13T04:30:44;11.55;;;3.38;;
57433;SDS011;43277;52.672;6.984;2023-07-13T04:33:10;11.50;;;3.10;;
57433;SDS011;43277;52.672;6.984;2023-07-13T04:35:36;11.52;;;3.33;;
57433;SDS011;43277;52.672;6.984;2023-07-13T04:38:02;15.82;;;3.30;;
57433;SDS011;43277;52.672;6.984;2023-07-13T04:40:28;17.60;;;3.55;;
57433;SDS011;43277;52.672;6.984;2023-07-13T04:42:54;16.65;;;4.15;;
57433;SDS011;43277;52.672;6.984;2023-07-13T04:45:21;12.95;;;3.50;;
57433;SDS011;43277;52.672;6.984;2023-07-13T04:47:49;11.93;;;3.15;;
57433;SDS011;43277;52.672;6.984;2023-07-13T04:50:14;15.40;;;3.95;;
57433;SDS011;43277;52.672;6.984;2023-07-13T04:52:44;16.43;;;3.73;;
57433;SDS011;43277;52.672;6.984;2023-07-13T04:55:10;11.63;;;3.58;;
57433;SDS011;43277;52.672;6.984;2023-07-13T04:57:36;11.35;;;3.53;;
57433;SDS011;43277;52.672;6.984;2023-07-13T05:00:02;13.32;;;3.50;;
57433;SDS011;43277;52.672;6.984;2023-07-13T05:02:31;11.90;;;3.35;;
57433;SDS011;43277;52.672;6.984;2023-07-13T05:04:58;13.43;;;4.05;;
57433;SDS011;43277;52.672;6.984;2023-07-13T05:07:24;12.40;;;3.65;;
57433;SDS011;43277;52.672;6.984;2023-07-13T05:09:50;15.68;;;3.88;;
57433;SDS011;43277;52.672;6.984;2023-07-13T05:12:16;13.55;;;3.28;;
57433;SDS011;43277;52.672;6.984;2023-07-13T05:14:42;14.23;;;4.15;;
57433;SDS011;43277;52.672;6.984;2023-07-13T05:17:08;16.50;;;4.05;;
57433;SDS011;43277;52.672;6.984;2023-07-13T05:19:34;13.85;;;3.78;;
57433;SDS011;43277;52.672;6.984;2023-07-13T05:22:00;10.90;;;3.63;;
57433;SDS011;43277;52.672;6.984;2023-07-13T05:24:25;12.23;;;3.72;;
57433;SDS011;43277;52.672;6.984;2023-07-13T05:26:51;13.60;;;3.78;;
57433;SDS011;43277;52.672;6.984;2023-07-13T05:29:18;13.30;;;3.88;;
57433;SDS011;43277;52.672;6.984;2023-07-13T05:31:44;14.63;;;3.63;;
57433;SDS011;43277;52.672;6.984;2023-07-13T05:34:10;12.77;;;3.50;;
57433;SDS011;43277;52.672;6.984;2023-07-13T05:36:35;13.13;;;4.05;;
57433;SDS011;43277;52.672;6.984;2023-07-13T05:39:02;13.70;;;4.03;;
57433;SDS011;43277;52.672;6.984;2023-07-13T05:41:28;12.05;;;3.72;;
57433;SDS011;43277;52.672;6.984;2023-07-13T05:43:54;15.48;;;4.75;;
57433;SDS011;43277;52.672;6.984;2023-07-13T05:46:20;15.82;;;4.63;;
57433;SDS011;43277;52.672;6.984;2023-07-13T05:48:46;14.45;;;3.85;;
57433;SDS011;43277;52.672;6.984;2023-07-13T05:51:11;14.52;;;4.32;;
57433;SDS011;43277;52.672;6.984;2023-07-13T05:53:38;15.90;;;4.45;;
57433;SDS011;43277;52.672;6.984;2023-07-13T05:56:03;13.43;;;3.97;;
57433;SDS011;43277;52.672;6.984;2023-07-13T05:58:29;14.88;;;4.03;;
57433;SDS011;43277;52.672;6.984;2023-07-13T06:01:05;16.60;;;3.92;;
57433;SDS011;43277;52.672;6.984;2023-07-13T06:03:32;10.63;;;3.67;;
57433;SDS011;43277;52.672;6.984;2023-07-13T06:05:58;13.68;;;4.28;;
57433;SDS011;43277;52.672;6.984;2023-07-13T06:08:28;10.68;;;3.55;;
57433;SDS011;43277;52.672;6.984;2023-07-13T06:10:54;13.35;;;4.00;;
57433;SDS011;43277;52.672;6.984;2023-07-13T06:13:19;15.95;;;4.32;;
57433;SDS011;43277;52.672;6.984;2023-07-13T06:15:49;15.65;;;3.92;;
57433;SDS011;43277;52.672;6.984;2023-07-13T06:18:15;12.75;;;3.67;;
57433;SDS011;43277;52.672;6.984;2023-07-13T06:20:40;14.48;;;5.35;;
57433;SDS011;43277;52.672;6.984;2023-07-13T06:23:06;15.35;;;4.10;;
57433;SDS011;43277;52.672;6.984;2023-07-13T06:25:32;14.13;;;3.47;;
57433;SDS011;43277;52.672;6.984;2023-07-13T06:27:57;14.27;;;4.43;;
57433;SDS011;43277;52.672;6.984;2023-07-13T06:30:23;12.30;;;4.15;;
57433;SDS011;43277;52.672;6.984;2023-07-13T06:32:49;12.15;;;4.13;;
57433;SDS011;43277;52.672;6.984;2023-07-13T06:35:14;9.85;;;3.17;;
57433;SDS011;43277;52.672;6.984;2023-07-13T06:37:40;15.27;;;3.70;;
57433;SDS011;43277;52.672;6.984;2023-07-13T06:40:06;13.55;;;3.90;;
57433;SDS011;43277;52.672;6.984;2023-07-13T06:42:33;13.77;;;3.50;;
57433;SDS011;43277;52.672;6.984;2023-07-13T06:44:58;16.00;;;3.92;;
57433;SDS011;43277;52.672;6.984;2023-07-13T06:47:24;11.68;;;3.75;;
57433;SDS011;43277;52.672;6.984;2023-07-13T06:49:50;10.93;;;3.80;;
57433;SDS011;43277;52.672;6.984;2023-07-13T06:52:15;14.40;;;4.05;;
57433;SDS011;43277;52.672;6.984;2023-07-13T06:54:41;14.65;;;3.50;;
57433;SDS011;43277;52.672;6.984;2023-07-13T06:57:06;15.63;;;4.03;;
57433;SDS011;43277;52.672;6.984;2023-07-13T06:59:32;14.13;;;3.70;;
57433;SDS011;43277;52.672;6.984;2023-07-13T07:01:58;12.82;;;4.10;;
57433;SDS011;43277;52.672;6.984;2023-07-13T07:04:24;14.88;;;4.25;;
57433;SDS011;43277;52.672;6.984;2023-07-13T07:06:49;12.98;;;3.97;;
57433;SDS011;43277;52.672;6.984;2023-07-13T07:09:15;11.05;;;3.65;;
57433;SDS011;43277;52.672;6.984;2023-07-13T07:11:41;16.38;;;4.00;;
57433;SDS011;43277;52.672;6.984;2023-07-13T07:14:07;13.18;;;3.97;;
57433;SDS011;43277;52.672;6.984;2023-07-13T07:16:33;10.10;;;3.38;;
57433;SDS011;43277;52.672;6.984;2023-07-13T07:18:59;12.57;;;3.95;;
57433;SDS011;43277;52.672;6.984;2023-07-13T07:21:24;13.57;;;3.75;;
57433;SDS011;43277;52.672;6.984;2023-07-13T07:23:51;13.93;;;4.38;;
57433;SDS011;43277;52.672;6.984;2023-07-13T07:26:17;12.15;;;3.95;;
57433;SDS011;43277;52.672;6.984;2023-07-13T07:28:43;14.00;;;4.05;;
57433;SDS011;43277;52.672;6.984;2023-07-13T07:31:09;14.73;;;4.03;;
57433;SDS011;43277;52.672;6.984;2023-07-13T07:33:35;11.02;;;3.67;;
57433;SDS011;43277;52.672;6.984;2023-07-13T07:36:01;12.60;;;3.38;;
57433;SDS011;43277;52.672;6.984;2023-07-13T07:38:27;12.27;;;3.33;;
57433;SDS011;43277;52.672;6.984;2023-07-13T07:40:53;12.35;;;3.70;;
57433;SDS011;43277;52.672;6.984;2023-07-13T07:43:19;14.13;;;3.60;;
57433;SDS011;43277;52.672;6.984;2023-07-13T07:45:45;12.57;;;3.97;;
57433;SDS011;43277;52.672;6.984;2023-07-13T07:48:10;13.30;;;4.20;;
57433;SDS011;43277;52.672;6.984;2023-07-13T07:50:37;14.10;;;3.70;;
57433;SDS011;43277;52.672;6.984;2023-07-13T07:53:04;16.38;;;4.40;;
57433;SDS011;43277;52.672;6.984;2023-07-13T07:55:35;14.55;;;4.40;;
57433;SDS011;43277;52.672;6.984;2023-07-13T07:58:01;14.55;;;3.85;;
57433;SDS011;43277;52.672;6.984;2023-07-13T08:00:27;16.88;;;5.15;;
57433;SDS011;43277;52.672;6.984;2023-07-13T08:02:56;15.98;;;4.18;;
57433;SDS011;43277;52.672;6.984;2023-07-13T08:05:23;13.48;;;3.85;;
57433;SDS011;43277;52.672;6.984;2023-07-13T08:07:49;13.70;;;4.43;;
57433;SDS011;43277;52.672;6.984;2023-07-13T08:10:15;15.23;;;4.20;;
57433;SDS011;43277;52.672;6.984;2023-07-13T08:12:41;13.63;;;3.85;;
57433;SDS011;43277;52.672;6.984;2023-07-13T08:15:09;17.08;;;4.60;;
57433;SDS011;43277;52.672;6.984;2023-07-13T08:17:36;13.20;;;4.15;;
57433;SDS011;43277;52.672;6.984;2023-07-13T08:20:02;13.30;;;4.00;;
57433;SDS011;43277;52.672;6.984;2023-07-13T08:22:27;13.23;;;3.70;;
57433;SDS011;43277;52.672;6.984;2023-07-13T08:24:53;14.32;;;4.40;;
57433;SDS011;43277;52.672;6.984;2023-07-13T08:27:22;13.70;;;4.55;;
57433;SDS011;43277;52.672;6.984;2023-07-13T08:29:49;15.25;;;5.05;;
57433;SDS011;43277;52.672;6.984;2023-07-13T08:32:15;11.88;;;4.28;;
57433;SDS011;43277;52.672;6.984;2023-07-13T08:34:43;12.43;;;4.15;;
57433;SDS011;43277;52.672;6.984;2023-07-13T08:37:08;14.88;;;4.10;;
57433;SDS011;43277;52.672;6.984;2023-07-13T08:39:34;13.02;;;3.90;;
57433;SDS011;43277;52.672;6.984;2023-07-13T08:42:21;14.55;;;4.10;;
57433;SDS011;43277;52.672;6.984;2023-07-13T08:45:11;13.30;;;4.03;;
57433;SDS011;43277;52.672;6.984;2023-07-13T08:47:54;12.07;;;4.15;;
57433;SDS011;43277;52.672;6.984;2023-07-13T08:50:27;14.27;;;4.57;;
57433;SDS011;43277;52.672;6.984;2023-07-13T08:52:57;12.38;;;4.50;;
57433;SDS011;43277;52.672;6.984;2023-07-13T08:55:26;14.43;;;4.43;;
57433;SDS011;43277;52.672;6.984;2023-07-13T08:57:56;12.32;;;3.92;;
57433;SDS011;43277;52.672;6.984;2023-07-13T09:00:32;13.63;;;5.22;;
57433;SDS011;43277;52.672;6.984;2023-07-13T09:03:07;13.52;;;4.40;;
57433;SDS011;43277;52.672;6.984;2023-07-13T09:05:45;12.75;;;4.45;;
57433;SDS011;43277;52.672;6.984;2023-07-13T09:13:54;8.85;;;3.50;;
57433;SDS011;43277;52.672;6.984;2023-07-13T09:16:25;13.60;;;3.88;;
57433;SDS011;43277;52.672;6.984;2023-07-13T09:18:51;13.88;;;4.60;;
57433;SDS011;43277;52.672;6.984;2023-07-13T09:21:31;10.57;;;3.70;;
57433;SDS011;43277;52.672;6.984;2023-07-13T09:24:06;12.85;;;4.60;;
57433;SDS011;43277;52.672;6.984;2023-07-13T09:26:56;12.93;;;4.85;;
57433;SDS011;43277;52.672;6.984;2023-07-13T09:29:27;12.40;;;4.70;;
57433;SDS011;43277;52.672;6.984;2023-07-13T09:31:58;11.95;;;4.38;;
57433;SDS011;43277;52.672;6.984;2023-07-13T09:34:28;12.38;;;4.22;;
57433;SDS011;43277;52.672;6.984;2023-07-13T09:36:55;11.57;;;3.60;;
57433;SDS011;43277;52.672;6.984;2023-07-13T09:39:30;11.38;;;4.50;;
57433;SDS011;43277;52.672;6.984;2023-07-13T09:42:07;11.48;;;4.32;;
57433;SDS011;43277;52.672;6.984;2023-07-13T09:44:38;12.85;;;4.18;;
57433;SDS011;43277;52.672;6.984;2023-07-13T09:47:16;8.98;;;1.90;;
57433;SDS011;43277;52.672;6.984;2023-07-13T09:49:43;8.13;;;2.15;;
57433;SDS011;43277;52.672;6.984;2023-07-13T09:52:14;16.80;;;3.03;;
57433;SDS011;43277;52.672;6.984;2023-07-13T09:54:43;9.80;;;2.45;;
57433;SDS011;43277;52.672;6.984;2023-07-13T09:57:17;7.95;;;2.10;;
57433;SDS011;43277;52.672;6.984;2023-07-13T09:59:45;5.68;;;1.45;;
57433;SDS011;43277;52.672;6.984;2023-07-13T10:02:31;6.53;;;1.50;;
57433;SDS011;43277;52.672;6.984;2023-07-13T10:07:29;5.95;;;1.55;;
57433;SDS011;43277;52.672;6.984;2023-07-13T10:09:56;15.73;;;2.67;;
57433;SDS011;43277;52.672;6.984;2023-07-13T10:12:26;6.47;;;2.00;;
57433;SDS011;43277;52.672;6.984;2023-07-13T10:14:57;11.00;;;2.88;;
57433;SDS011;43277;52.672;6.984;2023-07-13T10:17:29;8.70;;;2.67;;
57433;SDS011;43277;52.672;6.984;2023-07-13T10:19:58;23.25;;;3.30;;
57433;SDS011;43277;52.672;6.984;2023-07-13T10:22:29;6.05;;;2.33;;
57433;SDS011;43277;52.672;6.984;2023-07-13T10:25:12;5.68;;;1.77;;
57433;SDS011;43277;52.672;6.984;2023-07-13T10:28:14;5.20;;;1.90;;
57433;SDS011;43277;52.672;6.984;2023-07-13T10:30:44;5.90;;;1.60;;
57433;SDS011;43277;52.672;6.984;2023-07-13T10:33:12;4.80;;;1.45;;
57433;SDS011;43277;52.672;6.984;2023-07-13T10:35:40;6.22;;;1.73;;
57433;SDS011;43277;52.672;6.984;2023-07-13T10:38:12;6.00;;;1.73;;
57433;SDS011;43277;52.672;6.984;2023-07-13T10:40:42;6.45;;;1.90;;
57433;SDS011;43277;52.672;6.984;2023-07-13T10:43:20;4.95;;;1.77;;
57433;SDS011;43277;52.672;6.984;2023-07-13T10:45:52;5.47;;;1.92;;
57433;SDS011;43277;52.672;6.984;2023-07-13T10:48:19;6.38;;;2.00;;
57433;SDS011;43277;52.672;6.984;2023-07-13T10:50:49;6.25;;;2.63;;
57433;SDS011;43277;52.672;6.984;2023-07-13T10:53:19;8.05;;;2.30;;
57433;SDS011;43277;52.672;6.984;2023-07-13T10:56:05;6.60;;;2.37;;
57433;SDS011;43277;52.672;6.984;2023-07-13T10:58:44;7.88;;;2.70;;
57433;SDS011;43277;52.672;6.984;2023-07-13T11:01:15;7.28;;;2.85;;
57433;SDS011;43277;52.672;6.984;2023-07-13T11:03:50;8.70;;;3.33;;
57433;SDS011;43277;52.672;6.984;2023-07-13T11:11:56;9.25;;;3.60;;
57433;SDS011;43277;52.672;6.984;2023-07-13T11:22:42;9.23;;;3.65;;
57433;SDS011;43277;52.672;6.984;2023-07-13T11:28:04;10.38;;;4.75;;
57433;SDS011;43277;52.672;6.984;2023-07-13T11:30:37;11.05;;;4.82;;
57433;SDS011;43277;52.672;6.984;2023-07-13T11:35:51;9.05;;;3.28;;
57433;SDS011;43277;52.672;6.984;2023-07-13T11:41:13;6.47;;;2.90;;
57433;SDS011;43277;52.672;6.984;2023-07-13T11:43:45;7.82;;;2.28;;
57433;SDS011;43277;52.672;6.984;2023-07-13T11:46:15;6.22;;;1.83;;
57433;SDS011;43277;52.672;6.984;2023-07-13T11:48:48;6.50;;;2.10;;
57433;SDS011;43277;52.672;6.984;2023-07-13T11:56:13;6.50;;;2.60;;
57433;SDS011;43277;52.672;6.984;2023-07-13T11:58:39;7.82;;;2.25;;
57433;SDS011;43277;52.672;6.984;2023-07-13T12:01:06;6.60;;;2.30;;
57433;SDS011;43277;52.672;6.984;2023-07-13T12:03:41;7.07;;;2.45;;
57433;SDS011;43277;52.672;6.984;2023-07-13T12:06:23;5.95;;;2.40;;
57433;SDS011;43277;52.672;6.984;2023-07-13T12:09:02;7.03;;;2.40;;
57433;SDS011;43277;52.672;6.984;2023-07-13T12:11:39;7.50;;;2.40;;
57433;SDS011;43277;52.672;6.984;2023-07-13T12:14:10;7.25;;;2.50;;
57433;SDS011;43277;52.672;6.984;2023-07-13T12:16:40;6.22;;;2.47;;
57433;SDS011;43277;52.672;6.984;2023-07-13T12:19:13;8.80;;;2.80;;
57433;SDS011;43277;52.672;6.984;2023-07-13T12:21:46;7.40;;;2.63;;
57433;SDS011;43277;52.672;6.984;2023-07-13T12:24:17;7.90;;;2.65;;
57433;SDS011;43277;52.672;6.984;2023-07-13T12:26:44;8.35;;;2.83;;
57433;SDS011;43277;52.672;6.984;2023-07-13T12:29:17;8.18;;;2.70;;
57433;SDS011;43277;52.672;6.984;2023-07-13T12:31:44;7.65;;;2.70;;
57433;SDS011;43277;52.672;6.984;2023-07-13T12:34:15;6.97;;;2.33;;
57433;SDS011;43277;52.672;6.984;2023-07-13T12:36:56;7.50;;;2.38;;
57433;SDS011;43277;52.672;6.984;2023-07-13T12:39:33;8.73;;;2.50;;
57433;SDS011;43277;52.672;6.984;2023-07-13T12:44:58;8.23;;;2.58;;
57433;SDS011;43277;52.672;6.984;2023-07-13T12:47:30;8.30;;;2.42;;
57433;SDS011;43277;52.672;6.984;2023-07-13T12:50:04;8.10;;;2.75;;
57433;SDS011;43277;52.672;6.984;2023-07-13T12:52:32;9.18;;;2.65;;
57433;SDS011;43277;52.672;6.984;2023-07-13T12:55:03;8.73;;;3.03;;
57433;SDS011;43277;52.672;6.984;2023-07-13T12:57:38;6.28;;;2.20;;
57433;SDS011;43277;52.672;6.984;2023-07-13T13:02:44;8.73;;;2.65;;
57433;SDS011;43277;52.672;6.984;2023-07-13T13:05:12;8.40;;;2.42;;
57433;SDS011;43277;52.672;6.984;2023-07-13T13:07:39;8.07;;;2.95;;
57433;SDS011;43277;52.672;6.984;2023-07-13T13:10:11;8.00;;;2.90;;
57433;SDS011;43277;52.672;6.984;2023-07-13T13:12:38;8.50;;;3.10;;
57433;SDS011;43277;52.672;6.984;2023-07-13T13:15:07;11.20;;;3.10;;
57433;SDS011;43277;52.672;6.984;2023-07-13T13:17:34;7.57;;;2.80;;
57433;SDS011;43277;52.672;6.984;2023-07-13T13:20:00;7.95;;;3.10;;
57433;SDS011;43277;52.672;6.984;2023-07-13T13:22:26;9.77;;;3.10;;
57433;SDS011;43277;52.672;6.984;2023-07-13T13:24:52;8.98;;;2.65;;
57433;SDS011;43277;52.672;6.984;2023-07-13T13:27:18;8.10;;;2.75;;
57433;SDS011;43277;52.672;6.984;2023-07-13T13:29:47;8.80;;;2.53;;
57433;SDS011;43277;52.672;6.984;2023-07-13T13:32:17;7.95;;;2.22;;
57433;SDS011;43277;52.672;6.984;2023-07-13T13:34:44;7.53;;;2.63;;
57433;SDS011;43277;52.672;6.984;2023-07-13T13:37:22;7.15;;;2.60;;
57433;SDS011;43277;52.672;6.984;2023-07-13T13:39:51;9.88;;;2.63;;
57433;SDS011;43277;52.672;6.984;2023-07-13T13:42:18;8.18;;;2.30;;
57433;SDS011;43277;52.672;6.984;2023-07-13T13:44:46;7.68;;;1.98;;
57433;SDS011;43277;52.672;6.984;2023-07-13T13:47:26;8.07;;;1.98;;
57433;SDS011;43277;52.672;6.984;2023-07-13T13:49:55;9.48;;;2.08;;
57433;SDS011;43277;52.672;6.984;2023-07-13T13:52:21;7.63;;;1.65;;
57433;SDS011;43277;52.672;6.984;2023-07-13T13:54:47;4.85;;;1.40;;
57433;SDS011;43277;52.672;6.984;2023-07-13T13:57:12;6.03;;;1.40;;
57433;SDS011;43277;52.672;6.984;2023-07-13T13:59:39;6.80;;;1.42;;
57433;SDS011;43277;52.672;6.984;2023-07-13T14:02:25;4.82;;;1.45;;
57433;SDS011;43277;52.672;6.984;2023-07-13T14:04:59;4.03;;;1.23;;
57433;SDS011;43277;52.672;6.984;2023-07-13T14:07:27;5.30;;;1.35;;
57433;SDS011;43277;52.672;6.984;2023-07-13T14:09:55;6.38;;;1.80;;
57433;SDS011;43277;52.672;6.984;2023-07-13T14:12:22;7.90;;;1.55;;
57433;SDS011;43277;52.672;6.984;2023-07-13T14:14:51;6.43;;;1.73;;
57433;SDS011;43277;52.672;6.984;2023-07-13T14:17:21;8.52;;;1.73;;
57433;SDS011;43277;52.672;6.984;2023-07-13T14:19:50;5.50;;;1.90;;
57433;SDS011;43277;52.672;6.984;2023-07-13T14:22:19;5.93;;;1.50;;
57433;SDS011;43277;52.672;6.984;2023-07-13T14:24:45;10.75;;;1.75;;
57433;SDS011;43277;52.672;6.984;2023-07-13T14:27:11;9.52;;;2.15;;
57433;SDS011;43277;52.672;6.984;2023-07-13T14:29:38;5.43;;;1.58;;
57433;SDS011;43277;52.672;6.984;2023-07-13T14:32:05;8.13;;;1.80;;
57433;SDS011;43277;52.672;6.984;2023-07-13T14:34:34;6.45;;;1.73;;
57433;SDS011;43277;52.672;6.984;2023-07-13T14:37:00;7.03;;;1.70;;
57433;SDS011;43277;52.672;6.984;2023-07-13T14:39:26;7.18;;;1.58;;
57433;SDS011;43277;52.672;6.984;2023-07-13T14:41:54;6.60;;;1.50;;
57433;SDS011;43277;52.672;6.984;2023-07-13T14:44:22;5.78;;;1.60;;
57433;SDS011;43277;52.672;6.984;2023-07-13T14:46:50;6.17;;;1.80;;
57433;SDS011;43277;52.672;6.984;2023-07-13T14:49:30;7.15;;;2.35;;
57433;SDS011;43277;52.672;6.984;2023-07-13T14:52:03;6.82;;;1.80;;
57433;SDS011;43277;52.672;6.984;2023-07-13T14:54:36;7.80;;;2.00;;
57433;SDS011;43277;52.672;6.984;2023-07-13T14:57:08;7.88;;;1.65;;
57433;SDS011;43277;52.672;6.984;2023-07-13T14:59:45;6.40;;;1.88;;
57433;SDS011;43277;52.672;6.984;2023-07-13T15:02:15;8.63;;;1.90;;
57433;SDS011;43277;52.672;6.984;2023-07-13T15:04:42;6.30;;;2.13;;
57433;SDS011;43277;52.672;6.984;2023-07-13T15:07:09;6.65;;;1.63;;
57433;SDS011;43277;52.672;6.984;2023-07-13T15:09:36;5.53;;;1.35;;
57433;SDS011;43277;52.672;6.984;2023-07-13T15:12:01;7.25;;;1.60;;
57433;SDS011;43277;52.672;6.984;2023-07-13T15:14:28;7.22;;;1.40;;
57433;SDS011;43277;52.672;6.984;2023-07-13T15:16:54;5.75;;;1.60;;
57433;SDS011;43277;52.672;6.984;2023-07-13T15:19:20;5.28;;;1.45;;
57433;SDS011;43277;52.672;6.984;2023-07-13T15:21:48;7.97;;;1.40;;
57433;SDS011;43277;52.672;6.984;2023-07-13T15:24:15;9.23;;;1.60;;
57433;SDS011;43277;52.672;6.984;2023-07-13T15:26:41;6.65;;;1.45;;
57433;SDS011;43277;52.672;6.984;2023-07-13T15:29:13;7.72;;;1.40;;
57433;SDS011;43277;52.672;6.984;2023-07-13T15:31:42;6.93;;;1.55;;
57433;SDS011;43277;52.672;6.984;2023-07-13T15:34:12;6.80;;;1.58;;